createdAt,value
2018-11-02T00:01:18.808Z,7.90
2018-11-02T00:03:46.136Z,8.00
2018-11-02T00:06:13.574Z,7.90
2018-11-02T00:08:40.818Z,7.90
2018-11-02T00:11:08.177Z,8.00
2018-11-02T00:13:35.495Z,8.00
2018-11-02T00:16:02.812Z,8.00
2018-11-02T00:18:30.088Z,7.90
2018-11-02T00:20:57.456Z,8.00
2018-11-02T00:23:24.756Z,8.00
2018-11-02T00:25:52.172Z,8.00
2018-11-02T00:28:19.461Z,8.00
2018-11-02T00:30:46.769Z,8.10
2018-11-02T00:33:14.068Z,8.00
2018-11-02T00:35:41.369Z,8.10
2018-11-02T00:38:08.653Z,8.10
2018-11-02T00:40:35.926Z,8.10
2018-11-02T00:43:03.315Z,8.10
2018-11-02T00:45:30.625Z,8.10
2018-11-02T00:47:57.969Z,8.10
2018-11-02T00:50:25.253Z,8.10
2018-11-02T00:52:52.553Z,8.10
2018-11-02T00:55:19.861Z,8.10
2018-11-02T00:57:47.249Z,8.10
2018-11-02T01:00:14.925Z,8.10
2018-11-02T01:02:42.876Z,8.10
2018-11-02T01:05:10.285Z,8.20
2018-11-02T01:07:37.690Z,8.10
2018-11-02T01:10:05.447Z,8.10
2018-11-02T01:12:32.773Z,8.10
2018-11-02T01:15:00.079Z,8.20
2018-11-02T01:17:27.402Z,8.20
2018-11-02T01:19:54.763Z,8.10
2018-11-02T01:22:22.081Z,8.10
2018-11-02T01:24:49.382Z,8.10
2018-11-02T01:27:16.693Z,8.10
2018-11-02T01:29:43.972Z,6.90
2018-11-02T01:32:11.309Z,8.20
2018-11-02T01:34:38.597Z,8.20
2018-11-02T01:37:06.013Z,8.20
2018-11-02T01:39:33.328Z,8.20
2018-11-02T01:42:00.618Z,8.10
2018-11-02T01:44:27.913Z,8.10
2018-11-02T01:46:55.193Z,8.10
2018-11-02T01:49:22.464Z,8.10
2018-11-02T01:51:49.744Z,8.00
2018-11-02T01:54:17.058Z,8.00
2018-11-02T01:56:44.337Z,8.10
2018-11-02T01:59:11.685Z,8.00
2018-11-02T02:01:38.948Z,8.00
2018-11-02T02:04:06.258Z,8.00
2018-11-02T02:06:33.536Z,8.10
2018-11-02T02:09:00.857Z,8.10
2018-11-02T02:11:28.145Z,8.00
2018-11-02T02:13:55.432Z,8.00
2018-11-02T02:16:22.739Z,8.00
2018-11-02T02:18:50.036Z,8.00
2018-11-02T02:21:17.368Z,8.00
2018-11-02T02:23:44.657Z,7.80
2018-11-02T02:26:11.944Z,7.80
2018-11-02T02:28:39.237Z,7.80
2018-11-02T02:31:06.535Z,7.90
2018-11-02T02:33:33.839Z,7.90
2018-11-02T02:36:01.128Z,7.80
2018-11-02T02:38:28.436Z,7.80
2018-11-02T02:40:55.732Z,7.90
2018-11-02T02:43:23.039Z,7.80
2018-11-02T02:45:50.353Z,7.80
2018-11-02T02:48:17.608Z,7.80
2018-11-02T02:50:44.900Z,7.80
2018-11-02T02:53:12.168Z,7.80
2018-11-02T02:55:39.517Z,7.80
2018-11-02T02:58:06.788Z,7.80
2018-11-02T03:00:34.133Z,7.80
2018-11-02T03:03:01.418Z,7.80
2018-11-02T03:05:28.705Z,7.70
2018-11-02T03:07:56.010Z,7.70
2018-11-02T03:10:23.457Z,7.70
2018-11-02T03:12:50.607Z,7.70
2018-11-02T03:15:17.898Z,7.70
2018-11-02T03:17:45.242Z,7.70
2018-11-02T03:20:12.559Z,7.70
2018-11-02T03:22:40.190Z,7.80
2018-11-02T03:25:08.122Z,7.70
2018-11-02T03:27:35.435Z,7.70
2018-11-02T03:30:03.382Z,7.70
2018-11-02T03:32:30.708Z,7.70
2018-11-02T03:34:57.997Z,7.70
2018-11-02T03:37:25.295Z,7.60
2018-11-02T03:39:52.597Z,7.50
2018-11-02T03:42:19.993Z,7.50
2018-11-02T03:44:47.293Z,7.50
2018-11-02T03:47:14.616Z,7.40
2018-11-02T03:49:41.920Z,7.40
2018-11-02T03:52:09.609Z,7.30
2018-11-02T03:54:36.898Z,7.30
2018-11-02T03:57:04.577Z,7.40
2018-11-02T03:59:31.853Z,7.40
2018-11-02T04:01:59.142Z,7.40
2018-11-02T04:04:26.422Z,7.40
2018-11-02T04:06:53.718Z,7.50
2018-11-02T04:09:21.023Z,7.50
2018-11-02T04:11:48.294Z,7.40
2018-11-02T04:14:15.577Z,7.40
2018-11-02T04:16:42.963Z,7.40
2018-11-02T04:19:10.284Z,7.40
2018-11-02T04:21:45.052Z,7.40
2018-11-02T04:24:12.345Z,7.30
2018-11-02T04:26:40.077Z,7.30
2018-11-02T04:29:07.429Z,7.20
2018-11-02T04:31:34.722Z,7.20
2018-11-02T04:34:02.030Z,7.20
2018-11-02T04:36:29.576Z,7.20
2018-11-02T04:38:56.861Z,7.20
2018-11-02T04:41:24.195Z,7.20
2018-11-02T04:43:51.491Z,7.20
2018-11-02T04:46:18.810Z,7.20
2018-11-02T04:48:46.082Z,7.20
2018-11-02T04:51:13.417Z,7.20
2018-11-02T04:53:40.644Z,7.20
2018-11-02T04:56:07.925Z,7.20
2018-11-02T04:58:35.215Z,7.20
2018-11-02T05:01:02.588Z,7.10
2018-11-02T05:03:29.896Z,7.10
2018-11-02T05:05:57.234Z,7.20
2018-11-02T05:08:24.488Z,7.20
2018-11-02T05:10:52.625Z,7.20
2018-11-02T05:13:19.905Z,7.20
2018-11-02T05:15:47.172Z,7.20
2018-11-02T05:18:14.456Z,7.20
2018-11-02T05:20:41.732Z,7.20
2018-11-02T05:23:09.039Z,7.30
2018-11-02T05:25:36.300Z,7.20
2018-11-02T05:28:03.589Z,7.10
2018-11-02T05:30:30.861Z,7.10
2018-11-02T05:32:58.157Z,7.00
2018-11-02T05:35:25.420Z,7.10
2018-11-02T05:37:52.693Z,7.10
2018-11-02T05:40:19.976Z,7.10
2018-11-02T05:42:47.257Z,7.10
2018-11-02T05:45:14.557Z,7.10
2018-11-02T05:47:41.860Z,7.10
2018-11-02T05:50:09.139Z,7.10
2018-11-02T05:52:36.428Z,7.00
2018-11-02T05:55:05.263Z,7.10
2018-11-02T05:57:32.581Z,7.10
2018-11-02T05:59:59.860Z,7.10
2018-11-02T06:02:27.137Z,7.10
2018-11-02T06:04:54.879Z,7.10
2018-11-02T06:07:22.169Z,7.00
2018-11-02T06:09:49.493Z,7.00
2018-11-02T06:12:16.764Z,7.00
2018-11-02T06:14:44.040Z,7.00
2018-11-02T06:17:11.308Z,7.00
2018-11-02T06:19:38.617Z,6.90
2018-11-02T06:22:05.902Z,6.80
2018-11-02T06:24:33.227Z,6.80
2018-11-02T06:27:00.525Z,6.80
2018-11-02T06:29:27.797Z,6.70
2018-11-02T06:31:55.101Z,6.60
2018-11-02T06:34:22.380Z,6.50
2018-11-02T06:36:49.649Z,6.30
2018-11-02T06:39:16.952Z,6.20
2018-11-02T06:41:44.354Z,6.10
2018-11-02T06:44:11.645Z,6.10
2018-11-02T06:46:38.964Z,6.10
2018-11-02T06:49:06.308Z,6.10
2018-11-02T06:51:33.622Z,6.00
2018-11-02T06:54:00.937Z,5.80
2018-11-02T06:56:28.245Z,5.70
2018-11-02T06:58:55.514Z,5.80
2018-11-02T07:01:22.854Z,5.80
2018-11-02T07:03:50.161Z,5.90
2018-11-02T07:06:17.473Z,5.90
2018-11-02T07:08:44.746Z,5.90
2018-11-02T07:11:12.030Z,6.00
2018-11-02T07:13:39.313Z,6.00
2018-11-02T07:16:06.643Z,5.90
2018-11-02T07:18:33.916Z,6.00
2018-11-02T07:21:01.212Z,6.10
2018-11-02T07:23:28.514Z,6.20
2018-11-02T07:25:55.880Z,6.20
2018-11-02T07:28:23.167Z,6.30
2018-11-02T07:30:50.513Z,6.40
2018-11-02T07:33:17.818Z,6.50
2018-11-02T07:35:45.136Z,6.60
2018-11-02T07:38:12.437Z,6.60
2018-11-02T07:40:39.721Z,6.50
2018-11-02T07:43:07.086Z,6.40
2018-11-02T07:45:34.376Z,6.50
2018-11-02T07:48:01.713Z,6.50
2018-11-02T07:50:29.000Z,6.50
2018-11-02T07:52:56.311Z,6.60
2018-11-02T07:55:23.580Z,6.60
2018-11-02T07:57:50.872Z,6.70
2018-11-02T08:00:18.149Z,6.70
2018-11-02T08:02:46.306Z,6.80
2018-11-02T08:05:14.325Z,6.90
2018-11-02T08:07:41.757Z,7.00
2018-11-02T08:10:09.437Z,7.00
2018-11-02T08:12:36.856Z,7.10
2018-11-02T08:15:05.393Z,7.10
2018-11-02T08:17:32.729Z,7.20
2018-11-02T08:20:00.120Z,7.20
2018-11-02T08:22:27.388Z,7.30
2018-11-02T08:24:54.909Z,7.20
2018-11-02T08:27:22.169Z,7.30
2018-11-02T08:29:49.462Z,7.30
2018-11-02T08:32:16.863Z,7.30
2018-11-02T08:34:44.048Z,7.40
2018-11-02T08:37:11.320Z,7.40
2018-11-02T08:39:38.609Z,7.50
2018-11-02T08:42:06.045Z,7.50
2018-11-02T08:44:33.337Z,7.60
2018-11-02T08:47:00.609Z,7.60
2018-11-02T08:49:27.890Z,7.70
2018-11-02T08:51:55.168Z,7.70
2018-11-02T08:54:22.481Z,7.80
2018-11-02T08:56:49.752Z,7.90
2018-11-02T08:59:17.235Z,7.90
2018-11-02T09:01:44.512Z,7.90
2018-11-02T09:04:11.812Z,8.00
2018-11-02T09:06:39.089Z,8.10
2018-11-02T09:09:06.889Z,8.20
2018-11-02T09:11:34.176Z,8.30
2018-11-02T09:14:01.477Z,8.30
2018-11-02T09:16:28.752Z,8.40
2018-11-02T09:18:56.051Z,8.50
2018-11-02T09:21:23.305Z,8.50
2018-11-02T09:23:50.596Z,8.60
2018-11-02T09:26:17.884Z,8.70
2018-11-02T09:28:45.157Z,8.70
2018-11-02T09:31:12.444Z,8.80
2018-11-02T09:33:39.697Z,8.90
2018-11-02T09:36:06.969Z,9.00
2018-11-02T09:38:34.240Z,9.00
2018-11-02T09:41:01.533Z,9.10
2018-11-02T09:43:28.839Z,9.10
2018-11-02T09:45:56.150Z,9.20
2018-11-02T09:48:23.427Z,9.20
2018-11-02T09:50:50.717Z,9.20
2018-11-02T09:53:17.976Z,9.30
2018-11-02T09:55:45.281Z,9.30
2018-11-02T09:58:12.575Z,9.40
2018-11-02T10:00:39.848Z,9.40
2018-11-02T10:03:07.153Z,9.40
2018-11-02T10:05:34.477Z,9.40
2018-11-02T10:08:01.764Z,9.40
2018-11-02T10:10:29.056Z,9.50
2018-11-02T10:12:56.343Z,9.50
2018-11-02T10:15:23.669Z,9.60
2018-11-02T10:17:50.976Z,9.60
2018-11-02T10:20:18.263Z,9.70
2018-11-02T10:22:45.552Z,9.70
2018-11-02T10:25:12.829Z,9.70
2018-11-02T10:27:41.849Z,9.80
2018-11-02T10:30:10.807Z,9.80
2018-11-02T10:32:38.250Z,9.80
2018-11-02T10:35:06.165Z,9.90
2018-11-02T10:37:33.497Z,9.90
2018-11-02T10:40:00.834Z,9.90
2018-11-02T10:42:28.183Z,10.00
2018-11-02T10:44:55.569Z,10.00
2018-11-02T10:47:22.864Z,10.00
2018-11-02T10:49:50.145Z,10.10
2018-11-02T10:52:17.440Z,10.10
2018-11-02T10:54:44.857Z,10.10
2018-11-02T10:57:12.102Z,10.20
2018-11-02T10:59:39.322Z,10.20
2018-11-02T11:02:08.720Z,10.20
2018-11-02T11:04:36.741Z,10.20
2018-11-02T11:07:04.452Z,10.30
2018-11-02T11:09:31.764Z,10.30
2018-11-02T11:11:59.164Z,10.30
2018-11-02T11:14:26.364Z,10.30
2018-11-02T11:16:53.728Z,10.30
2018-11-02T11:19:21.045Z,10.40
2018-11-02T11:21:48.337Z,10.40
2018-11-02T11:24:15.658Z,10.40
2018-11-02T11:26:42.963Z,10.40
2018-11-02T11:29:10.280Z,10.40
2018-11-02T11:31:37.602Z,10.50
2018-11-02T11:34:06.056Z,10.50
2018-11-02T11:36:33.322Z,10.60
2018-11-02T11:39:00.665Z,10.70
2018-11-02T11:41:27.932Z,10.70
2018-11-02T11:43:55.292Z,10.60
2018-11-02T11:46:22.581Z,10.60
2018-11-02T11:48:50.027Z,10.70
2018-11-02T11:51:17.233Z,10.80
2018-11-02T11:53:44.553Z,10.80
2018-11-02T11:56:11.913Z,10.80
2018-11-02T11:58:39.214Z,10.90
2018-11-02T12:01:06.540Z,10.90
2018-11-02T12:03:33.835Z,10.90
2018-11-02T12:06:01.173Z,11.00
2018-11-02T12:08:28.477Z,11.00
2018-11-02T12:10:55.808Z,11.00
2018-11-02T12:13:23.088Z,11.00
2018-11-02T12:15:50.459Z,11.00
2018-11-02T12:18:17.686Z,11.10
2018-11-02T12:20:44.993Z,11.10
2018-11-02T12:23:12.302Z,11.10
2018-11-02T12:25:39.684Z,11.10
2018-11-02T12:28:07.011Z,11.20
2018-11-02T12:30:34.294Z,11.20
2018-11-02T12:33:01.572Z,11.20
2018-11-02T12:35:28.860Z,11.20
2018-11-02T12:37:56.149Z,11.20
2018-11-02T12:40:23.896Z,11.30
2018-11-02T12:42:52.091Z,11.30
2018-11-02T12:45:20.345Z,11.30
2018-11-02T12:47:47.953Z,11.30
2018-11-02T12:50:17.827Z,11.40
2018-11-02T12:52:45.777Z,11.40
2018-11-02T12:55:13.657Z,11.40
2018-11-02T12:57:41.400Z,11.40
2018-11-02T13:00:11.568Z,11.40
2018-11-02T13:02:39.097Z,11.50
2018-11-02T13:05:07.202Z,11.50
2018-11-02T13:07:34.489Z,11.50
2018-11-02T13:10:01.766Z,11.60
2018-11-02T13:12:29.145Z,11.60
2018-11-02T13:14:56.429Z,11.50
2018-11-02T13:17:23.715Z,11.50
2018-11-02T13:19:51.052Z,11.60
2018-11-02T13:22:18.490Z,11.50
2018-11-02T13:24:45.640Z,11.50
2018-11-02T13:27:12.921Z,11.60
2018-11-02T13:29:40.186Z,11.60
2018-11-02T13:32:07.457Z,11.60
2018-11-02T13:34:34.733Z,11.60
2018-11-02T13:37:02.087Z,11.60
2018-11-02T13:39:29.296Z,11.60
2018-11-02T13:41:56.605Z,11.50
2018-11-02T13:44:23.913Z,11.40
2018-11-02T13:46:51.250Z,11.40
2018-11-02T13:49:18.529Z,11.40
2018-11-02T13:51:45.820Z,11.50
2018-11-02T13:54:13.274Z,11.60
2018-11-02T13:56:40.574Z,11.60
2018-11-02T13:59:07.878Z,11.60
2018-11-02T14:01:35.144Z,11.70
2018-11-02T14:04:02.432Z,11.70
2018-11-02T14:06:29.701Z,11.80
2018-11-02T14:08:56.969Z,11.70
2018-11-02T14:11:24.332Z,11.80
2018-11-02T14:13:51.617Z,11.80
2018-11-02T14:16:18.924Z,11.80
2018-11-02T14:18:46.228Z,11.80
2018-11-02T14:21:13.549Z,11.70
2018-11-02T14:23:40.859Z,11.60
2018-11-02T14:26:08.288Z,11.60
2018-11-02T14:28:35.788Z,11.60
2018-11-02T14:31:03.078Z,11.60
2018-11-02T14:33:30.394Z,11.60
2018-11-02T14:35:57.661Z,11.60
2018-11-02T14:38:24.949Z,11.60
2018-11-02T14:40:52.329Z,11.60
2018-11-02T14:43:19.525Z,11.50
2018-11-02T14:45:46.837Z,11.50
2018-11-02T14:48:14.137Z,11.50
2018-11-02T14:50:41.421Z,11.50
2018-11-02T14:53:08.696Z,11.40
2018-11-02T14:55:36.009Z,11.40
2018-11-02T14:58:03.512Z,11.40
2018-11-02T15:00:30.821Z,11.40
2018-11-02T15:02:58.097Z,11.30
2018-11-02T15:05:25.389Z,11.30
2018-11-02T15:07:52.671Z,11.20
2018-11-02T15:10:19.959Z,11.20
2018-11-02T15:12:47.245Z,11.10
2018-11-02T15:15:14.549Z,11.00
2018-11-02T15:17:41.844Z,11.00
2018-11-02T15:20:10.912Z,10.80
2018-11-02T15:22:38.310Z,10.70
2018-11-02T15:25:05.672Z,10.70
2018-11-02T15:27:32.937Z,10.80
2018-11-02T15:30:00.224Z,10.80
2018-11-02T15:32:27.497Z,10.80
2018-11-02T15:34:54.773Z,10.70
2018-11-02T15:37:22.156Z,10.70
2018-11-02T15:39:49.476Z,10.70
2018-11-02T15:42:16.758Z,10.70
2018-11-02T15:44:44.226Z,10.70
2018-11-02T15:47:11.342Z,10.80
2018-11-02T15:49:38.624Z,10.90
2018-11-02T15:52:05.912Z,10.90
2018-11-02T15:54:33.176Z,10.90
2018-11-02T15:57:00.551Z,10.90
2018-11-02T15:59:27.821Z,10.90
2018-11-02T16:01:55.101Z,10.70
2018-11-02T16:04:22.359Z,10.60
2018-11-02T16:06:49.720Z,10.50
2018-11-02T16:09:16.985Z,10.40
2018-11-02T16:11:45.449Z,10.30
2018-11-02T16:14:13.067Z,10.20
2018-11-02T16:16:40.381Z,10.10
2018-11-02T16:19:07.685Z,10.00
2018-11-02T16:21:35.433Z,10.00
2018-11-02T16:24:02.713Z,10.00
2018-11-02T16:26:30.021Z,10.20
2018-11-02T16:28:57.317Z,10.20
2018-11-02T16:31:24.739Z,10.10
2018-11-02T16:33:52.035Z,10.00
2018-11-02T16:36:19.321Z,9.70
2018-11-02T16:38:46.606Z,9.60
2018-11-02T16:41:13.884Z,9.50
2018-11-02T16:43:41.314Z,9.60
2018-11-02T16:46:08.517Z,9.70
2018-11-02T16:48:35.954Z,9.70
2018-11-02T16:51:03.303Z,9.70
2018-11-02T16:53:30.593Z,9.60
2018-11-02T16:55:57.881Z,9.60
2018-11-02T16:58:25.181Z,9.70
2018-11-02T17:00:52.476Z,9.70
2018-11-02T17:03:19.788Z,9.70
2018-11-02T17:05:47.206Z,9.70
2018-11-02T17:08:14.488Z,9.60
2018-11-02T17:10:41.929Z,9.50
2018-11-02T17:13:09.253Z,9.50
2018-11-02T17:15:36.643Z,9.60
2018-11-02T17:18:04.718Z,9.80
2018-11-02T17:20:31.989Z,9.80
2018-11-02T17:22:59.337Z,9.80
2018-11-02T17:25:26.723Z,9.90
2018-11-02T17:27:54.013Z,9.90
2018-11-02T17:30:21.286Z,10.00
2018-11-02T17:32:48.670Z,10.00
2018-11-02T17:35:15.958Z,10.00
2018-11-02T17:37:43.244Z,10.00
2018-11-02T17:40:11.922Z,10.00
2018-11-02T17:42:39.312Z,9.90
2018-11-02T17:45:07.265Z,10.00
2018-11-02T17:47:34.731Z,9.90
2018-11-02T17:50:02.024Z,9.80
2018-11-02T17:52:29.292Z,9.80
2018-11-02T17:54:56.620Z,9.80
2018-11-02T17:57:23.938Z,9.70
2018-11-02T17:59:51.224Z,9.70
2018-11-02T18:02:18.616Z,9.80
2018-11-02T18:04:45.999Z,9.80
2018-11-02T18:07:13.297Z,9.80
2018-11-02T18:09:40.679Z,9.80
2018-11-02T18:12:07.964Z,9.80
2018-11-02T18:14:35.326Z,9.80
2018-11-02T18:17:03.445Z,9.80
2018-11-02T18:19:31.643Z,9.80
2018-11-02T18:21:58.990Z,9.80
2018-11-02T18:24:26.558Z,9.80
2018-11-02T18:26:53.914Z,9.80
2018-11-02T18:29:21.255Z,9.80
2018-11-02T18:31:48.524Z,9.80
2018-11-02T18:34:15.834Z,9.80
2018-11-02T18:36:43.212Z,9.80
2018-11-02T18:39:12.924Z,9.70
2018-11-02T18:41:40.629Z,9.50
2018-11-02T18:44:07.970Z,9.60
2018-11-02T18:46:35.259Z,9.60
2018-11-02T18:49:02.655Z,9.60
2018-11-02T18:51:30.012Z,9.70
2018-11-02T18:53:57.468Z,9.70
2018-11-02T18:56:24.748Z,9.70
2018-11-02T18:58:52.493Z,9.70
2018-11-02T19:01:19.817Z,9.60
2018-11-02T19:03:47.097Z,9.50
2018-11-02T19:06:14.744Z,9.60
2018-11-02T19:08:42.255Z,9.60
2018-11-02T19:11:09.524Z,9.60
2018-11-02T19:13:36.835Z,9.70
2018-11-02T19:16:05.058Z,9.60
2018-11-02T19:18:32.390Z,9.60
2018-11-02T19:20:59.771Z,9.60
2018-11-02T19:23:27.153Z,9.70
2018-11-02T19:25:54.660Z,9.60
2018-11-02T19:28:22.165Z,9.60
2018-11-02T19:30:49.541Z,9.70
2018-11-02T19:33:16.832Z,9.60
2018-11-02T19:35:44.161Z,9.60
2018-11-02T19:38:12.334Z,9.60
2018-11-02T19:40:39.276Z,9.60
2018-11-02T19:43:06.603Z,9.60
2018-11-02T19:45:33.903Z,9.60
2018-11-02T19:48:02.556Z,9.60
2018-11-02T19:50:29.935Z,9.60
2018-11-02T19:52:57.404Z,9.60
2018-11-02T19:55:25.139Z,9.50
2018-11-02T19:57:52.872Z,9.50
2018-11-02T20:00:20.478Z,9.50
2018-11-02T20:02:47.761Z,9.50
2018-11-02T20:05:16.723Z,9.50
2018-11-02T20:07:44.177Z,9.50
2018-11-02T20:10:12.501Z,9.50
2018-11-02T20:12:39.855Z,9.40
2018-11-02T20:15:08.294Z,9.40
2018-11-02T20:17:36.262Z,9.40
2018-11-02T20:20:04.464Z,9.50
2018-11-02T20:22:31.729Z,9.40
2018-11-02T20:24:59.069Z,9.40
2018-11-02T20:27:26.385Z,9.40
2018-11-02T20:29:53.865Z,9.30
2018-11-02T20:32:21.201Z,9.20
2018-11-02T20:34:48.414Z,9.20
2018-11-02T20:37:16.061Z,9.20
2018-11-02T20:39:43.450Z,9.30
2018-11-02T20:42:10.961Z,9.30
2018-11-02T20:44:38.411Z,9.20
2018-11-02T20:47:06.033Z,9.20
2018-11-02T20:49:33.356Z,9.20
2018-11-02T20:52:01.015Z,9.20
2018-11-02T20:54:28.328Z,9.20
2018-11-02T20:56:56.078Z,9.30
2018-11-02T20:59:23.359Z,9.20
2018-11-02T21:01:50.825Z,9.20
2018-11-02T21:04:18.121Z,9.10
2018-11-02T21:06:45.443Z,9.00
2018-11-02T21:09:13.607Z,9.00
2018-11-02T21:11:41.554Z,9.10
2018-11-02T21:14:10.028Z,9.10
2018-11-02T21:16:37.335Z,9.10
2018-11-02T21:19:05.426Z,9.00
2018-11-02T21:21:32.829Z,9.00
2018-11-02T21:24:00.337Z,9.10
2018-11-02T21:26:27.637Z,9.10
2018-11-02T21:28:55.287Z,9.10
2018-11-02T21:31:22.732Z,9.10
2018-11-02T21:33:50.169Z,9.20
2018-11-02T21:36:17.408Z,9.10
2018-11-02T21:38:44.834Z,9.00
2018-11-02T21:41:12.155Z,9.00
2018-11-02T21:43:39.449Z,8.90
2018-11-02T21:46:06.774Z,9.00
2018-11-02T21:48:34.059Z,9.00
2018-11-02T21:51:01.576Z,9.00
2018-11-02T21:53:28.884Z,8.90
2018-11-02T21:55:56.213Z,8.90
2018-11-02T21:58:23.947Z,8.90
2018-11-02T22:00:51.216Z,8.90
2018-11-02T22:03:18.526Z,8.70
2018-11-02T22:05:45.838Z,8.70
2018-11-02T22:08:13.245Z,8.60
2018-11-02T22:10:40.947Z,8.50
2018-11-02T22:13:08.354Z,8.70
2018-11-02T22:15:35.717Z,8.70
2018-11-02T22:18:03.161Z,8.70
2018-11-02T22:20:30.449Z,8.70
2018-11-02T22:22:57.774Z,8.80
2018-11-02T22:25:25.047Z,8.70
2018-11-02T22:27:52.388Z,8.80
2018-11-02T22:30:20.093Z,8.80
2018-11-02T22:32:47.795Z,8.70
2018-11-02T22:35:15.373Z,8.70
2018-11-02T22:37:42.840Z,8.70
2018-11-02T22:40:10.984Z,8.70
2018-11-02T22:42:38.557Z,8.60
2018-11-02T22:45:06.582Z,8.50
2018-11-02T22:47:33.968Z,8.40
2018-11-02T22:50:01.343Z,8.30
2018-11-02T22:52:28.660Z,8.30
2018-11-02T22:54:56.068Z,8.20
2018-11-02T22:57:23.340Z,8.20
2018-11-02T22:59:50.629Z,8.20
2018-11-02T23:02:18.005Z,8.20
2018-11-02T23:04:45.321Z,8.30
2018-11-02T23:07:12.596Z,8.30
2018-11-02T23:09:39.945Z,8.40
2018-11-02T23:12:07.241Z,8.40
2018-11-02T23:14:34.532Z,8.40
2018-11-02T23:17:01.834Z,8.40
2018-11-02T23:19:29.219Z,8.40
2018-11-02T23:21:56.480Z,8.30
2018-11-02T23:24:23.765Z,8.20
2018-11-02T23:26:51.049Z,8.10
2018-11-02T23:29:18.366Z,8.10
2018-11-02T23:31:45.637Z,8.10
2018-11-02T23:34:12.926Z,8.10
2018-11-02T23:36:40.216Z,8.10
2018-11-02T23:39:07.966Z,8.20
2018-11-02T23:41:35.317Z,8.20
2018-11-02T23:44:02.645Z,8.20
2018-11-02T23:46:29.924Z,8.20
2018-11-02T23:48:57.201Z,8.20
2018-11-02T23:51:24.500Z,8.20
2018-11-02T23:53:51.817Z,8.20
2018-11-02T23:56:19.107Z,8.20
2018-11-02T23:58:46.433Z,8.10
